sensor_id;sensor_type;location;lat;lon;timestamp;pressure;altitude;pressure_sealevel;temperature;humidity
21821;BME280;11073;48.586;12.066;2022-08-19T00:01:58;95856.19;;;22.76;64.21
21821;BME280;11073;48.586;12.066;2022-08-19T00:04:30;95866.25;;;22.72;64.44
21821;BME280;11073;48.586;12.066;2022-08-19T00:07:00;95873.88;;;22.67;64.29
21821;BME280;11073;48.586;12.066;2022-08-19T00:09:30;95891.78;;;22.61;64.54
21821;BME280;11073;48.586;12.066;2022-08-19T00:11:58;95899.38;;;22.64;64.69
21821;BME280;11073;48.586;12.066;2022-08-19T00:14:28;95895.00;;;22.63;64.85
21821;BME280;11073;48.586;12.066;2022-08-19T00:16:59;95912.84;;;22.65;64.93
21821;BME280;11073;48.586;12.066;2022-08-19T00:19:30;95922.59;;;22.63;64.92
21821;BME280;11073;48.586;12.066;2022-08-19T00:21:58;95922.09;;;22.61;65.42
21821;BME280;11073;48.586;12.066;2022-08-19T00:24:29;95925.97;;;22.68;64.91
21821;BME280;11073;48.586;12.066;2022-08-19T00:26:58;95938.31;;;22.71;65.28
21821;BME280;11073;48.586;12.066;2022-08-19T00:29:48;95943.69;;;22.67;65.19
21821;BME280;11073;48.586;12.066;2022-08-19T00:32:19;95938.97;;;22.59;65.33
21821;BME280;11073;48.586;12.066;2022-08-19T00:34:56;95936.84;;;22.65;65.19
21821;BME280;11073;48.586;12.066;2022-08-19T00:37:28;95934.25;;;22.68;65.35
21821;BME280;11073;48.586;12.066;2022-08-19T00:39:58;95911.09;;;22.61;65.55
21821;BME280;11073;48.586;12.066;2022-08-19T00:42:26;95919.63;;;22.76;65.05
21821;BME280;11073;48.586;12.066;2022-08-19T00:44:56;95919.28;;;22.78;65.04
21821;BME280;11073;48.586;12.066;2022-08-19T00:47:25;95906.31;;;22.78;65.21
21821;BME280;11073;48.586;12.066;2022-08-19T00:49:56;95910.34;;;22.81;65.47
21821;BME280;11073;48.586;12.066;2022-08-19T00:52:28;95909.06;;;22.78;65.41
21821;BME280;11073;48.586;12.066;2022-08-19T00:55:00;95907.94;;;22.79;65.08
21821;BME280;11073;48.586;12.066;2022-08-19T00:57:32;95899.47;;;22.84;64.96
21821;BME280;11073;48.586;12.066;2022-08-19T01:00:06;95896.41;;;22.86;65.00
21821;BME280;11073;48.586;12.066;2022-08-19T01:02:37;95904.19;;;22.84;64.92
21821;BME280;11073;48.586;12.066;2022-08-19T01:05:09;95901.94;;;22.86;65.22
21821;BME280;11073;48.586;12.066;2022-08-19T01:07:40;95899.34;;;22.90;65.03
21821;BME280;11073;48.586;12.066;2022-08-19T01:10:13;95889.09;;;22.90;65.27
21821;BME280;11073;48.586;12.066;2022-08-19T01:12:43;95870.44;;;22.87;64.90
21821;BME280;11073;48.586;12.066;2022-08-19T01:15:15;95877.72;;;22.92;64.86
21821;BME280;11073;48.586;12.066;2022-08-19T01:17:45;95875.78;;;22.92;64.92
21821;BME280;11073;48.586;12.066;2022-08-19T01:20:17;95887.50;;;22.89;65.24
21821;BME280;11073;48.586;12.066;2022-08-19T01:22:50;95898.03;;;22.87;65.18
21821;BME280;11073;48.586;12.066;2022-08-19T01:25:28;95903.22;;;22.89;65.24
21821;BME280;11073;48.586;12.066;2022-08-19T01:27:58;95904.69;;;22.86;65.08
21821;BME280;11073;48.586;12.066;2022-08-19T01:30:37;95901.94;;;22.86;65.16
21821;BME280;11073;48.586;12.066;2022-08-19T01:33:10;95899.66;;;22.88;65.04
21821;BME280;11073;48.586;12.066;2022-08-19T01:35:40;95905.97;;;22.89;65.13
21821;BME280;11073;48.586;12.066;2022-08-19T01:38:20;95907.09;;;22.96;65.44
21821;BME280;11073;48.586;12.066;2022-08-19T01:40:50;95907.41;;;22.95;65.47
21821;BME280;11073;48.586;12.066;2022-08-19T01:43:19;95907.28;;;22.91;65.38
21821;BME280;11073;48.586;12.066;2022-08-19T01:45:48;95910.38;;;22.90;65.20
21821;BME280;11073;48.586;12.066;2022-08-19T01:48:18;95910.84;;;22.83;65.21
21821;BME280;11073;48.586;12.066;2022-08-19T01:50:47;95904.34;;;22.79;65.36
21821;BME280;11073;48.586;12.066;2022-08-19T01:53:18;95906.81;;;22.72;65.93
21821;BME280;11073;48.586;12.066;2022-08-19T01:55:49;95917.03;;;22.71;66.02
21821;BME280;11073;48.586;12.066;2022-08-19T01:58:21;95916.69;;;22.73;66.17
21821;BME280;11073;48.586;12.066;2022-08-19T02:00:51;95922.56;;;22.71;66.17
21821;BME280;11073;48.586;12.066;2022-08-19T02:03:20;95922.22;;;22.73;66.07
21821;BME280;11073;48.586;12.066;2022-08-19T02:05:54;95919.97;;;22.75;66.44
21821;BME280;11073;48.586;12.066;2022-08-19T02:08:24;95913.66;;;22.74;66.04
21821;BME280;11073;48.586;12.066;2022-08-19T02:10:52;95913.47;;;22.71;66.32
21821;BME280;11073;48.586;12.066;2022-08-19T02:13:24;95924.34;;;22.76;66.35
21821;BME280;11073;48.586;12.066;2022-08-19T02:15:53;95924.34;;;22.76;65.90
21821;BME280;11073;48.586;12.066;2022-08-19T02:18:22;95923.19;;;22.77;66.27
21821;BME280;11073;48.586;12.066;2022-08-19T02:20:54;95918.81;;;22.76;65.80
21821;BME280;11073;48.586;12.066;2022-08-19T02:23:24;95924.19;;;22.72;65.86
21821;BME280;11073;48.586;12.066;2022-08-19T02:25:54;95915.44;;;22.70;66.00
21821;BME280;11073;48.586;12.066;2022-08-19T02:28:23;95907.16;;;22.70;65.93
21821;BME280;11073;48.586;12.066;2022-08-19T02:30:52;95902.44;;;22.71;66.36
21821;BME280;11073;48.586;12.066;2022-08-19T02:33:20;95893.34;;;22.70;66.01
21821;BME280;11073;48.586;12.066;2022-08-19T02:35:49;95899.69;;;22.71;66.49
21821;BME280;11073;48.586;12.066;2022-08-19T02:38:18;95906.69;;;22.68;66.14
21821;BME280;11073;48.586;12.066;2022-08-19T02:41:00;95909.25;;;22.65;66.28
21821;BME280;11073;48.586;12.066;2022-08-19T02:43:31;95897.09;;;22.66;66.39
21821;BME280;11073;48.586;12.066;2022-08-19T02:46:01;95885.13;;;22.62;66.52
21821;BME280;11073;48.586;12.066;2022-08-19T02:48:30;95904.59;;;22.56;66.50
21821;BME280;11073;48.586;12.066;2022-08-19T02:51:00;95897.28;;;22.52;66.60
21821;BME280;11073;48.586;12.066;2022-08-19T02:53:29;95909.78;;;22.49;66.87
21821;BME280;11073;48.586;12.066;2022-08-19T02:55:58;95914.34;;;22.54;66.62
21821;BME280;11073;48.586;12.066;2022-08-19T02:58:27;95920.66;;;22.54;66.71
21821;BME280;11073;48.586;12.066;2022-08-19T03:00:56;95911.88;;;22.52;66.49
21821;BME280;11073;48.586;12.066;2022-08-19T03:03:26;95913.34;;;22.50;66.85
21821;BME280;11073;48.586;12.066;2022-08-19T03:06:06;95917.59;;;22.47;66.83
21821;BME280;11073;48.586;12.066;2022-08-19T03:08:36;95905.25;;;22.45;66.78
21821;BME280;11073;48.586;12.066;2022-08-19T03:11:12;95910.47;;;22.46;66.99
21821;BME280;11073;48.586;12.066;2022-08-19T03:13:41;95905.88;;;22.50;66.66
21821;BME280;11073;48.586;12.066;2022-08-19T03:16:11;95908.66;;;22.50;66.62
21821;BME280;11073;48.586;12.066;2022-08-19T03:18:40;95917.59;;;22.47;66.95
21821;BME280;11073;48.586;12.066;2022-08-19T03:21:15;95927.16;;;22.50;66.65
21821;BME280;11073;48.586;12.066;2022-08-19T03:23:44;95927.31;;;22.45;67.14
21821;BME280;11073;48.586;12.066;2022-08-19T03:26:15;95900.06;;;22.43;66.76
21821;BME280;11073;48.586;12.066;2022-08-19T03:28:44;95895.06;;;22.45;67.07
21821;BME280;11073;48.586;12.066;2022-08-19T03:31:26;95901.84;;;22.48;66.77
21821;BME280;11073;48.586;12.066;2022-08-19T03:34:17;95917.59;;;22.47;66.97
21821;BME280;11073;48.586;12.066;2022-08-19T03:36:47;95920.03;;;22.40;66.93
21821;BME280;11073;48.586;12.066;2022-08-19T03:39:16;95920.38;;;22.39;66.92
21821;BME280;11073;48.586;12.066;2022-08-19T03:41:48;95915.66;;;22.39;66.88
21821;BME280;11073;48.586;12.066;2022-08-19T03:44:37;95922.94;;;22.35;67.30
21821;BME280;11073;48.586;12.066;2022-08-19T03:47:06;95924.56;;;22.36;67.39
21821;BME280;11073;48.586;12.066;2022-08-19T03:49:35;95928.47;;;22.35;67.11
21821;BME280;11073;48.586;12.066;2022-08-19T03:52:04;95919.06;;;22.36;67.01
21821;BME280;11073;48.586;12.066;2022-08-19T03:54:35;95922.63;;;22.37;67.39
21821;BME280;11073;48.586;12.066;2022-08-19T03:57:06;95937.22;;;22.37;67.20
21821;BME280;11073;48.586;12.066;2022-08-19T03:59:37;95942.09;;;22.40;66.98
21821;BME280;11073;48.586;12.066;2022-08-19T04:02:09;95950.84;;;22.42;67.20
21821;BME280;11073;48.586;12.066;2022-08-19T04:04:40;95956.53;;;22.46;66.95
21821;BME280;11073;48.586;12.066;2022-08-19T04:07:12;95956.53;;;22.46;66.96
21821;BME280;11073;48.586;12.066;2022-08-19T04:09:43;95966.56;;;22.50;66.55
21821;BME280;11073;48.586;12.066;2022-08-19T04:12:13;95970.13;;;22.51;66.83
21821;BME280;11073;48.586;12.066;2022-08-19T04:14:42;95954.72;;;22.50;66.40
21821;BME280;11073;48.586;12.066;2022-08-19T04:17:11;95961.03;;;22.50;66.37
21821;BME280;11073;48.586;12.066;2022-08-19T04:19:41;95961.38;;;22.49;66.39
21821;BME280;11073;48.586;12.066;2022-08-19T04:22:11;95959.44;;;22.49;66.64
21821;BME280;11073;48.586;12.066;2022-08-19T04:24:39;95964.13;;;22.49;66.42
21821;BME280;11073;48.586;12.066;2022-08-19T04:27:08;95967.69;;;22.49;66.22
21821;BME280;11073;48.586;12.066;2022-08-19T04:29:38;95965.75;;;22.50;66.27
21821;BME280;11073;48.586;12.066;2022-08-19T04:32:07;95967.03;;;22.52;66.28
21821;BME280;11073;48.586;12.066;2022-08-19T04:34:37;95966.22;;;22.52;66.09
21821;BME280;11073;48.586;12.066;2022-08-19T04:37:27;95967.53;;;22.54;65.87
21821;BME280;11073;48.586;12.066;2022-08-19T04:40:04;95967.22;;;22.56;66.09
21821;BME280;11073;48.586;12.066;2022-08-19T04:43:05;95959.75;;;22.56;65.83
21821;BME280;11073;48.586;12.066;2022-08-19T04:45:36;95961.84;;;22.60;66.16
21821;BME280;11073;48.586;12.066;2022-08-19T04:48:10;95964.28;;;22.61;65.67
21821;BME280;11073;48.586;12.066;2022-08-19T04:50:55;95971.09;;;22.64;65.65
21821;BME280;11073;48.586;12.066;2022-08-19T04:53:26;95965.56;;;22.64;65.85
21821;BME280;11073;48.586;12.066;2022-08-19T04:56:09;95976.78;;;22.67;65.62
21821;BME280;11073;48.586;12.066;2022-08-19T04:58:40;95982.59;;;22.66;65.57
21821;BME280;11073;48.586;12.066;2022-08-19T05:01:13;95992.81;;;22.65;65.57
21821;BME280;11073;48.586;12.066;2022-08-19T05:03:44;95998.34;;;22.65;65.63
21821;BME280;11073;48.586;12.066;2022-08-19T05:06:15;95995.25;;;22.67;65.66
21821;BME280;11073;48.586;12.066;2022-08-19T05:08:45;95996.25;;;22.62;65.60
21821;BME280;11073;48.586;12.066;2022-08-19T05:11:16;95990.41;;;22.64;65.44
21821;BME280;11073;48.586;12.066;2022-08-19T05:13:46;95995.44;;;22.62;65.58
21821;BME280;11073;48.586;12.066;2022-08-19T05:16:19;95997.41;;;22.61;65.68
21821;BME280;11073;48.586;12.066;2022-08-19T05:18:48;96000.63;;;22.63;65.28
21821;BME280;11073;48.586;12.066;2022-08-19T05:21:35;96005.00;;;22.64;65.38
21821;BME280;11073;48.586;12.066;2022-08-19T05:24:22;95999.47;;;22.64;65.26
21821;BME280;11073;48.586;12.066;2022-08-19T05:26:53;96004.84;;;22.61;65.45
21821;BME280;11073;48.586;12.066;2022-08-19T05:29:25;96003.72;;;22.62;65.47
21821;BME280;11073;48.586;12.066;2022-08-19T05:32:05;96004.34;;;22.58;65.59
21821;BME280;11073;48.586;12.066;2022-08-19T05:34:35;96004.84;;;22.61;65.50
21821;BME280;11073;48.586;12.066;2022-08-19T05:37:05;96003.72;;;22.62;65.21
21821;BME280;11073;48.586;12.066;2022-08-19T05:39:37;96005.34;;;22.63;65.56
21821;BME280;11073;48.586;12.066;2022-08-19T05:42:08;96008.09;;;22.63;65.08
21821;BME280;11073;48.586;12.066;2022-08-19T05:44:38;96000.63;;;22.63;65.27
21821;BME280;11073;48.586;12.066;2022-08-19T05:47:13;95997.53;;;22.65;65.05
21821;BME280;11073;48.586;12.066;2022-08-19T05:49:42;95993.00;;;22.60;65.31
21821;BME280;11073;48.586;12.066;2022-08-19T05:52:14;95985.56;;;22.61;65.58
21821;BME280;11073;48.586;12.066;2022-08-19T05:54:46;95992.19;;;22.60;65.61
21821;BME280;11073;48.586;12.066;2022-08-19T05:57:18;95989.41;;;22.60;65.18
21821;BME280;11073;48.586;12.066;2022-08-19T05:59:47;95994.31;;;22.63;65.34
21821;BME280;11073;48.586;12.066;2022-08-19T06:02:26;95987.16;;;22.62;65.44
21821;BME280;11073;48.586;12.066;2022-08-19T06:04:55;95981.97;;;22.60;65.60
21821;BME280;11073;48.586;12.066;2022-08-19T06:07:24;95987.16;;;22.62;65.66
21821;BME280;11073;48.586;12.066;2022-08-19T06:09:52;95978.69;;;22.67;65.24
21821;BME280;11073;48.586;12.066;2022-08-19T06:12:27;95977.09;;;22.66;65.09
21821;BME280;11073;48.586;12.066;2022-08-19T06:14:59;95979.69;;;22.71;65.04
21821;BME280;11073;48.586;12.066;2022-08-19T06:17:29;95978.53;;;22.72;65.26
21821;BME280;11073;48.586;12.066;2022-08-19T06:19:58;95967.50;;;22.72;64.98
21821;BME280;11073;48.586;12.066;2022-08-19T06:22:27;95978.69;;;22.67;65.14
21821;BME280;11073;48.586;12.066;2022-08-19T06:24:56;95986.97;;;22.67;65.33
21821;BME280;11073;48.586;12.066;2022-08-19T06:27:25;95993.63;;;22.66;65.23
21821;BME280;11073;48.586;12.066;2022-08-19T06:29:53;96002.91;;;22.61;65.34
21821;BME280;11073;48.586;12.066;2022-08-19T06:32:22;96001.28;;;22.60;65.64
21821;BME280;11073;48.586;12.066;2022-08-19T06:34:52;96002.25;;;22.64;65.43
21821;BME280;11073;48.586;12.066;2022-08-19T06:37:21;96006.28;;;22.67;65.26
21821;BME280;11073;48.586;12.066;2022-08-19T06:39:49;95996.09;;;22.67;65.61
21821;BME280;11073;48.586;12.066;2022-08-19T06:42:18;95997.72;;;22.68;65.58
21821;BME280;11073;48.586;12.066;2022-08-19T06:44:50;96005.19;;;22.68;65.12
21821;BME280;11073;48.586;12.066;2022-08-19T06:47:21;96006.78;;;22.69;65.24
21821;BME280;11073;48.586;12.066;2022-08-19T06:49:56;95988.28;;;22.69;65.35
21821;BME280;11073;48.586;12.066;2022-08-19T06:52:30;95996.09;;;22.67;65.24
21821;BME280;11073;48.586;12.066;2022-08-19T06:55:03;96004.19;;;22.72;65.29
21821;BME280;11073;48.586;12.066;2022-08-19T06:57:33;96008.88;;;22.72;65.65
21821;BME280;11073;48.586;12.066;2022-08-19T07:00:03;96015.53;;;22.71;65.80
21821;BME280;11073;48.586;12.066;2022-08-19T07:02:35;96016.69;;;22.70;65.73
21821;BME280;11073;48.586;12.066;2022-08-19T07:05:07;96013.59;;;22.71;65.47
21821;BME280;11073;48.586;12.066;2022-08-19T07:07:37;96015.22;;;22.72;65.88
21821;BME280;11073;48.586;12.066;2022-08-19T07:10:09;96016.81;;;22.73;65.92
21821;BME280;11073;48.586;12.066;2022-08-19T07:12:38;96016.03;;;22.73;66.00
21821;BME280;11073;48.586;12.066;2022-08-19T07:15:08;96020.72;;;22.72;65.88
21821;BME280;11073;48.586;12.066;2022-08-19T07:17:39;96017.81;;;22.69;65.99
21821;BME280;11073;48.586;12.066;2022-08-19T07:20:12;96025.44;;;22.72;66.11
21821;BME280;11073;48.586;12.066;2022-08-19T07:22:45;96029.00;;;22.72;66.21
21821;BME280;11073;48.586;12.066;2022-08-19T07:25:14;96028.66;;;22.74;66.29
21821;BME280;11073;48.586;12.066;2022-08-19T07:27:44;96031.59;;;22.77;66.62
21821;BME280;11073;48.586;12.066;2022-08-19T07:30:21;96024.94;;;22.78;66.32
21821;BME280;11073;48.586;12.066;2022-08-19T07:32:52;96021.03;;;22.79;66.86
21821;BME280;11073;48.586;12.066;2022-08-19T07:35:23;96008.38;;;22.78;66.67
21821;BME280;11073;48.586;12.066;2022-08-19T07:37:51;96020.22;;;22.79;67.02
21821;BME280;11073;48.586;12.066;2022-08-19T07:40:20;96011.97;;;22.79;66.85
21821;BME280;11073;48.586;12.066;2022-08-19T07:42:49;96001.25;;;22.77;67.43
21821;BME280;11073;48.586;12.066;2022-08-19T07:45:18;96002.25;;;22.81;67.18
21821;BME280;11073;48.586;12.066;2022-08-19T07:47:47;95998.81;;;22.84;67.29
21821;BME280;11073;48.586;12.066;2022-08-19T07:50:19;96001.25;;;22.95;67.56
21821;BME280;11073;48.586;12.066;2022-08-19T07:52:49;95999.13;;;23.00;67.85
21821;BME280;11073;48.586;12.066;2022-08-19T07:55:21;95997.16;;;23.09;67.84
21821;BME280;11073;48.586;12.066;2022-08-19T07:58:11;95993.25;;;23.19;67.93
21821;BME280;11073;48.586;12.066;2022-08-19T08:00:42;95994.50;;;23.22;67.50
21821;BME280;11073;48.586;12.066;2022-08-19T08:03:12;95972.88;;;23.32;67.83
21821;BME280;11073;48.586;12.066;2022-08-19T08:05:41;95959.31;;;23.48;67.22
21821;BME280;11073;48.586;12.066;2022-08-19T08:08:30;95965.75;;;23.70;67.31
21821;BME280;11073;48.586;12.066;2022-08-19T08:11:20;95959.13;;;23.83;66.82
21821;BME280;11073;48.586;12.066;2022-08-19T08:13:50;95946.72;;;23.98;66.65
21821;BME280;11073;48.586;12.066;2022-08-19T08:16:33;95941.50;;;24.17;66.40
21821;BME280;11073;48.586;12.066;2022-08-19T08:19:14;95943.34;;;24.13;66.08
21821;BME280;11073;48.586;12.066;2022-08-19T08:21:52;95939.16;;;24.07;66.03
21821;BME280;11073;48.586;12.066;2022-08-19T08:24:23;95938.00;;;24.08;65.86
21821;BME280;11073;48.586;12.066;2022-08-19T08:26:55;95940.41;;;24.09;65.58
21821;BME280;11073;48.586;12.066;2022-08-19T08:29:26;95929.03;;;24.11;65.19
21821;BME280;11073;48.586;12.066;2022-08-19T08:32:01;95921.69;;;24.15;65.25
21821;BME280;11073;48.586;12.066;2022-08-19T08:34:41;95926.41;;;24.14;65.07
21821;BME280;11073;48.586;12.066;2022-08-19T08:37:10;95932.75;;;24.15;65.12
21821;BME280;11073;48.586;12.066;2022-08-19T08:39:43;95935.16;;;24.16;65.04
21821;BME280;11073;48.586;12.066;2022-08-19T08:42:22;95943.91;;;24.18;64.49
21821;BME280;11073;48.586;12.066;2022-08-19T08:44:57;95959.84;;;24.21;64.34
21821;BME280;11073;48.586;12.066;2022-08-19T08:47:30;95970.09;;;24.21;64.34
21821;BME280;11073;48.586;12.066;2022-08-19T08:50:05;95977.78;;;24.15;63.96
21821;BME280;11073;48.586;12.066;2022-08-19T08:52:37;95976.16;;;24.14;63.97
21821;BME280;11073;48.586;12.066;2022-08-19T08:55:14;95974.91;;;24.12;64.17
21821;BME280;11073;48.586;12.066;2022-08-19T08:57:52;95978.31;;;24.09;64.03
21821;BME280;11073;48.586;12.066;2022-08-19T09:00:24;95991.69;;;24.07;63.72
21821;BME280;11073;48.586;12.066;2022-08-19T09:02:54;95994.78;;;24.05;63.65
21821;BME280;11073;48.586;12.066;2022-08-19T09:05:32;95994.78;;;24.05;63.63
21821;BME280;11073;48.586;12.066;2022-08-19T09:08:19;96007.13;;;24.08;63.37
21821;BME280;11073;48.586;12.066;2022-08-19T09:10:54;96009.53;;;24.09;63.06
21821;BME280;11073;48.586;12.066;2022-08-19T09:13:29;96005.31;;;24.12;62.96
21821;BME280;11073;48.586;12.066;2022-08-19T09:16:06;96010.00;;;24.11;62.68
21821;BME280;11073;48.586;12.066;2022-08-19T09:18:40;96012.75;;;24.11;62.79
21821;BME280;11073;48.586;12.066;2022-08-19T09:21:09;96013.09;;;24.10;62.67
21821;BME280;11073;48.586;12.066;2022-08-19T09:23:38;96015.75;;;24.06;62.84
21821;BME280;11073;48.586;12.066;2022-08-19T09:26:13;96021.13;;;24.03;63.01
21821;BME280;11073;48.586;12.066;2022-08-19T09:28:44;96019.03;;;24.00;62.71
21821;BME280;11073;48.586;12.066;2022-08-19T09:31:17;96013.34;;;23.96;62.80
21821;BME280;11073;48.586;12.066;2022-08-19T09:33:47;96012.88;;;23.94;62.96
21821;BME280;11073;48.586;12.066;2022-08-19T09:36:20;96007.53;;;23.89;62.99
21821;BME280;11073;48.586;12.066;2022-08-19T09:39:02;96016.06;;;23.84;63.47
21821;BME280;11073;48.586;12.066;2022-08-19T09:41:44;96016.69;;;23.81;64.20
21821;BME280;11073;48.586;12.066;2022-08-19T09:44:15;96008.28;;;23.77;64.54
21821;BME280;11073;48.586;12.066;2022-08-19T09:46:45;96018.25;;;23.70;64.74
21821;BME280;11073;48.586;12.066;2022-08-19T09:49:16;96008.03;;;23.61;64.87
21821;BME280;11073;48.586;12.066;2022-08-19T09:51:49;95998.94;;;23.52;65.12
21821;BME280;11073;48.586;12.066;2022-08-19T09:54:19;96002.72;;;23.48;65.68
21821;BME280;11073;48.586;12.066;2022-08-19T09:56:53;96006.31;;;23.39;65.93
21821;BME280;11073;48.586;12.066;2022-08-19T09:59:22;96012.50;;;23.36;66.48
21821;BME280;11073;48.586;12.066;2022-08-19T10:01:51;96009.91;;;23.31;66.93
21821;BME280;11073;48.586;12.066;2022-08-19T10:04:21;96012.53;;;23.28;66.94
21821;BME280;11073;48.586;12.066;2022-08-19T10:06:55;96009.13;;;23.22;67.35
21821;BME280;11073;48.586;12.066;2022-08-19T10:09:24;96019.41;;;23.04;68.20
21821;BME280;11073;48.586;12.066;2022-08-19T10:12:04;96014.56;;;22.93;68.16
21821;BME280;11073;48.586;12.066;2022-08-19T10:14:37;96026.09;;;22.86;68.61
21821;BME280;11073;48.586;12.066;2022-08-19T10:17:07;96031.63;;;22.86;68.60
21821;BME280;11073;48.586;12.066;2022-08-19T10:19:46;96026.72;;;22.83;68.93
21821;BME280;11073;48.586;12.066;2022-08-19T10:22:22;96020.22;;;22.79;68.94
21821;BME280;11073;48.586;12.066;2022-08-19T10:24:53;96023.47;;;22.72;69.04
21821;BME280;11073;48.586;12.066;2022-08-19T10:27:23;96026.41;;;22.58;69.17
21821;BME280;11073;48.586;12.066;2022-08-19T10:29:53;96024.81;;;22.40;69.89
21821;BME280;11073;48.586;12.066;2022-08-19T10:32:24;96021.53;;;22.12;70.31
21821;BME280;11073;48.586;12.066;2022-08-19T10:35:01;96035.75;;;21.97;70.85
21821;BME280;11073;48.586;12.066;2022-08-19T10:37:32;96027.16;;;21.98;71.43
21821;BME280;11073;48.586;12.066;2022-08-19T10:40:03;96026.03;;;21.99;71.94
21821;BME280;11073;48.586;12.066;2022-08-19T10:42:34;96030.22;;;21.88;71.90
21821;BME280;11073;48.586;12.066;2022-08-19T10:45:05;96021.91;;;21.80;72.19
21821;BME280;11073;48.586;12.066;2022-08-19T10:47:33;96019.16;;;21.71;72.78
21821;BME280;11073;48.586;12.066;2022-08-19T10:50:03;96021.91;;;21.71;73.05
21821;BME280;11073;48.586;12.066;2022-08-19T10:52:55;96023.19;;;21.65;73.20
21821;BME280;11073;48.586;12.066;2022-08-19T10:55:24;96028.69;;;21.65;73.55
21821;BME280;11073;48.586;12.066;2022-08-19T10:58:12;96020.78;;;21.72;73.55
21821;BME280;11073;48.586;12.066;2022-08-19T11:00:42;96024.34;;;21.72;73.72
21821;BME280;11073;48.586;12.066;2022-08-19T11:03:11;96016.75;;;21.78;73.49
21821;BME280;11073;48.586;12.066;2022-08-19T11:05:39;96011.22;;;21.78;73.78
21821;BME280;11073;48.586;12.066;2022-08-19T11:08:08;96007.69;;;21.86;73.98
21821;BME280;11073;48.586;12.066;2022-08-19T11:10:51;96006.91;;;22.03;74.38
21821;BME280;11073;48.586;12.066;2022-08-19T11:13:27;96007.75;;;22.21;74.57
21821;BME280;11073;48.586;12.066;2022-08-19T11:15:57;95996.25;;;22.36;74.49
21821;BME280;11073;48.586;12.066;2022-08-19T11:18:34;96000.13;;;22.52;74.40
21821;BME280;11073;48.586;12.066;2022-08-19T11:21:09;95994.44;;;22.66;74.32
21821;BME280;11073;48.586;12.066;2022-08-19T11:23:39;96004.16;;;22.81;73.30
21821;BME280;11073;48.586;12.066;2022-08-19T11:26:07;95999.63;;;22.94;73.62
21821;BME280;11073;48.586;12.066;2022-08-19T11:28:38;96001.06;;;23.00;73.09
21821;BME280;11073;48.586;12.066;2022-08-19T11:31:10;95999.28;;;22.95;73.01
21821;BME280;11073;48.586;12.066;2022-08-19T11:33:39;96002.84;;;22.96;72.93
21821;BME280;11073;48.586;12.066;2022-08-19T11:36:13;96000.44;;;22.94;73.20
21821;BME280;11073;48.586;12.066;2022-08-19T11:38:43;95996.19;;;23.05;73.65
21821;BME280;11073;48.586;12.066;2022-08-19T11:41:13;95998.09;;;23.22;73.92
21821;BME280;11073;48.586;12.066;2022-08-19T11:43:43;96002.13;;;23.25;73.21
21821;BME280;11073;48.586;12.066;2022-08-19T11:46:15;96001.00;;;23.26;73.04
21821;BME280;11073;48.586;12.066;2022-08-19T11:48:44;96001.63;;;23.31;73.04
21821;BME280;11073;48.586;12.066;2022-08-19T11:51:15;95989.75;;;23.31;72.52
21821;BME280;11073;48.586;12.066;2022-08-19T11:53:46;95990.91;;;23.30;72.41
21821;BME280;11073;48.586;12.066;2022-08-19T11:56:14;95983.25;;;23.35;72.25
21821;BME280;11073;48.586;12.066;2022-08-19T11:58:45;95984.03;;;23.45;71.78
21821;BME280;11073;48.586;12.066;2022-08-19T12:01:17;95986.28;;;23.51;71.55
21821;BME280;11073;48.586;12.066;2022-08-19T12:03:48;95986.94;;;23.48;71.31
21821;BME280;11073;48.586;12.066;2022-08-19T12:06:19;95986.13;;;23.48;70.72
21821;BME280;11073;48.586;12.066;2022-08-19T12:08:51;95985.03;;;23.40;70.93
21821;BME280;11073;48.586;12.066;2022-08-19T12:11:21;95990.56;;;23.40;70.88
21821;BME280;11073;48.586;12.066;2022-08-19T12:13:51;95991.38;;;23.41;70.80
21821;BME280;11073;48.586;12.066;2022-08-19T12:16:22;95985.00;;;23.49;70.86
21821;BME280;11073;48.586;12.066;2022-08-19T12:18:53;95982.34;;;23.52;70.33
21821;BME280;11073;48.586;12.066;2022-08-19T12:21:24;95980.56;;;23.56;70.23
21821;BME280;11073;48.586;12.066;2022-08-19T12:23:57;95983.19;;;23.61;70.45
21821;BME280;11073;48.586;12.066;2022-08-19T12:26:27;95990.09;;;23.67;70.56
21821;BME280;11073;48.586;12.066;2022-08-19T12:28:58;95984.28;;;23.69;69.67
21821;BME280;11073;48.586;12.066;2022-08-19T12:31:28;95987.16;;;23.73;69.21
21821;BME280;11073;48.586;12.066;2022-08-19T12:33:58;95982.91;;;23.75;69.03
21821;BME280;11073;48.586;12.066;2022-08-19T12:36:27;95988.13;;;23.77;68.95
21821;BME280;11073;48.586;12.066;2022-08-19T12:38:57;95990.38;;;23.83;68.85
21821;BME280;11073;48.586;12.066;2022-08-19T12:41:26;95992.78;;;23.85;68.91
21821;BME280;11073;48.586;12.066;2022-08-19T12:43:55;96003.84;;;23.85;68.46
21821;BME280;11073;48.586;12.066;2022-08-19T12:46:25;96007.06;;;23.87;68.48
21821;BME280;11073;48.586;12.066;2022-08-19T12:48:54;96004.59;;;23.94;68.21
21821;BME280;11073;48.586;12.066;2022-08-19T12:51:23;96015.41;;;24.08;68.22
21821;BME280;11073;48.586;12.066;2022-08-19T12:53:54;96012.72;;;24.20;67.97
21821;BME280;11073;48.586;12.066;2022-08-19T12:56:23;96015.78;;;24.48;67.82
21821;BME280;11073;48.586;12.066;2022-08-19T12:58:52;96004.16;;;24.75;67.18
21821;BME280;11073;48.586;12.066;2022-08-19T13:01:20;96014.25;;;24.92;66.55
21821;BME280;11073;48.586;12.066;2022-08-19T13:03:51;96006.31;;;25.03;66.20
21821;BME280;11073;48.586;12.066;2022-08-19T13:06:20;96004.25;;;25.00;65.61
21821;BME280;11073;48.586;12.066;2022-08-19T13:08:49;95998.50;;;25.05;65.54
21821;BME280;11073;48.586;12.066;2022-08-19T13:11:19;96002.56;;;25.08;65.12
21821;BME280;11073;48.586;12.066;2022-08-19T13:13:49;96003.72;;;25.07;64.68
21821;BME280;11073;48.586;12.066;2022-08-19T13:16:18;95997.22;;;25.02;64.73